<?xml version="1.0" encoding="UTF-8" standalone="no" ?>
<gpx xmlns="http://www.topografix.com/GPX/1/1" xmlns:xsi="http://www.w3.org/2001/XMLSchema-instance" xsi:schemaLocation="http://www.topografix.com/GPX/1/1 http://www.topografix.com/GPX/1/1/gpx.xsd" version="1.1" creator="VisuGPX - https://www.visugpx.com">
  <metadata>
    <name>BARGEMON FLAVAS ET LE BOIS DE LA COSTE</name>
    <desc><![CDATA[Randonnée autour de Bargemon]]></desc>
  </metadata>
  <trk>
    <name><![CDATA[OR-6163867--Bargemon:Favas et le bois de la Coste]]></name>
    <trkseg>
      <trkpt lat="43.61955" lon="6.5512">
        <ele>475</ele>
        <time>2016-05-31T23:14:31Z</time>
      </trkpt>
      <trkpt lat="43.61946" lon="6.55104">
        <ele>474</ele>
        <time>2016-05-31T23:16:31Z</time>
      </trkpt>
      <trkpt lat="43.61957" lon="6.55089">
        <ele>476</ele>
        <time>2016-05-31T23:18:31Z</time>
      </trkpt>
      <trkpt lat="43.61969" lon="6.55088">
        <ele>477</ele>
        <time>2016-05-31T23:20:31Z</time>
      </trkpt>
      <trkpt lat="43.6198" lon="6.55077">
        <ele>478</ele>
        <time>2016-05-31T23:22:31Z</time>
      </trkpt>
      <trkpt lat="43.61993" lon="6.55065">
        <ele>479</ele>
        <time>2016-05-31T23:24:31Z</time>
      </trkpt>
      <trkpt lat="43.61999" lon="6.55056">
        <ele>480</ele>
        <time>2016-05-31T23:26:31Z</time>
      </trkpt>
      <trkpt lat="43.62009" lon="6.55067">
        <ele>482</ele>
        <time>2016-05-31T23:28:31Z</time>
      </trkpt>
      <trkpt lat="43.62019" lon="6.55074">
        <ele>483</ele>
        <time>2016-05-31T23:30:31Z</time>
      </trkpt>
      <trkpt lat="43.62029" lon="6.55078">
        <ele>485</ele>
        <time>2016-05-31T23:32:31Z</time>
      </trkpt>
      <trkpt lat="43.62041" lon="6.5508">
        <ele>486</ele>
        <time>2016-05-31T23:34:31Z</time>
      </trkpt>
      <trkpt lat="43.62048" lon="6.55067">
        <ele>487</ele>
        <time>2016-05-31T23:36:31Z</time>
      </trkpt>
      <trkpt lat="43.62053" lon="6.55048">
        <ele>489</ele>
        <time>2016-05-31T23:38:31Z</time>
      </trkpt>
      <trkpt lat="43.62058" lon="6.5503">
        <ele>491</ele>
        <time>2016-05-31T23:40:31Z</time>
      </trkpt>
      <trkpt lat="43.62065" lon="6.55009">
        <ele>494</ele>
        <time>2016-05-31T23:42:31Z</time>
      </trkpt>
      <trkpt lat="43.62068" lon="6.54991">
        <ele>496</ele>
        <time>2016-05-31T23:44:31Z</time>
      </trkpt>
      <trkpt lat="43.6207" lon="6.54979">
        <ele>499</ele>
        <time>2016-05-31T23:46:31Z</time>
      </trkpt>
      <trkpt lat="43.62072" lon="6.54967">
        <ele>501</ele>
        <time>2016-05-31T23:48:31Z</time>
      </trkpt>
      <trkpt lat="43.6207" lon="6.54951">
        <ele>503</ele>
        <time>2016-05-31T23:50:31Z</time>
      </trkpt>
      <trkpt lat="43.62059" lon="6.54945">
        <ele>501</ele>
        <time>2016-05-31T23:52:31Z</time>
      </trkpt>
      <trkpt lat="43.62049" lon="6.54938">
        <ele>499</ele>
        <time>2016-05-31T23:54:31Z</time>
      </trkpt>
      <trkpt lat="43.62042" lon="6.54931">
        <ele>498</ele>
        <time>2016-05-31T23:56:31Z</time>
      </trkpt>
      <trkpt lat="43.62033" lon="6.54914">
        <ele>498</ele>
        <time>2016-05-31T23:58:31Z</time>
      </trkpt>
      <trkpt lat="43.62023" lon="6.54906">
        <ele>497</ele>
        <time>2016-06-01T00:00:31Z</time>
      </trkpt>
      <trkpt lat="43.62016" lon="6.54897">
        <ele>497</ele>
        <time>2016-06-01T00:02:31Z</time>
      </trkpt>
      <trkpt lat="43.62008" lon="6.54885">
        <ele>498</ele>
        <time>2016-06-01T00:04:31Z</time>
      </trkpt>
      <trkpt lat="43.61998" lon="6.5486">
        <ele>500</ele>
        <time>2016-06-01T00:06:31Z</time>
      </trkpt>
      <trkpt lat="43.61987" lon="6.54838">
        <ele>501</ele>
        <time>2016-06-01T00:08:31Z</time>
      </trkpt>
      <trkpt lat="43.61978" lon="6.54818">
        <ele>501</ele>
        <time>2016-06-01T00:10:31Z</time>
      </trkpt>
      <trkpt lat="43.61972" lon="6.54799">
        <ele>501</ele>
        <time>2016-06-01T00:12:31Z</time>
      </trkpt>
      <trkpt lat="43.61966" lon="6.54774">
        <ele>502</ele>
        <time>2016-06-01T00:14:31Z</time>
      </trkpt>
      <trkpt lat="43.61965" lon="6.54749">
        <ele>505</ele>
        <time>2016-06-01T00:16:31Z</time>
      </trkpt>
      <trkpt lat="43.61968" lon="6.54714">
        <ele>508</ele>
        <time>2016-06-01T00:18:31Z</time>
      </trkpt>
      <trkpt lat="43.61973" lon="6.54673">
        <ele>512</ele>
        <time>2016-06-01T00:20:31Z</time>
      </trkpt>
      <trkpt lat="43.61979" lon="6.54648">
        <ele>514</ele>
        <time>2016-06-01T00:22:31Z</time>
      </trkpt>
      <trkpt lat="43.61986" lon="6.54618">
        <ele>516</ele>
        <time>2016-06-01T00:24:31Z</time>
      </trkpt>
      <trkpt lat="43.61992" lon="6.54591">
        <ele>518</ele>
        <time>2016-06-01T00:26:31Z</time>
      </trkpt>
      <trkpt lat="43.62001" lon="6.54556">
        <ele>519</ele>
        <time>2016-06-01T00:28:31Z</time>
      </trkpt>
      <trkpt lat="43.62007" lon="6.54541">
        <ele>521</ele>
        <time>2016-06-01T00:30:31Z</time>
      </trkpt>
      <trkpt lat="43.62018" lon="6.54522">
        <ele>524</ele>
        <time>2016-06-01T00:32:31Z</time>
      </trkpt>
      <trkpt lat="43.62028" lon="6.545">
        <ele>527</ele>
        <time>2016-06-01T00:34:31Z</time>
      </trkpt>
      <trkpt lat="43.62042" lon="6.54469">
        <ele>529</ele>
        <time>2016-06-01T00:36:31Z</time>
      </trkpt>
      <trkpt lat="43.62053" lon="6.54448">
        <ele>531</ele>
        <time>2016-06-01T00:38:31Z</time>
      </trkpt>
      <trkpt lat="43.62062" lon="6.54421">
        <ele>532</ele>
        <time>2016-06-01T00:40:31Z</time>
      </trkpt>
      <trkpt lat="43.62072" lon="6.54399">
        <ele>533</ele>
        <time>2016-06-01T00:42:31Z</time>
      </trkpt>
      <trkpt lat="43.6208" lon="6.5438">
        <ele>532</ele>
        <time>2016-06-01T00:44:31Z</time>
      </trkpt>
      <trkpt lat="43.62087" lon="6.54362">
        <ele>532</ele>
        <time>2016-06-01T00:46:31Z</time>
      </trkpt>
      <trkpt lat="43.621" lon="6.54341">
        <ele>535</ele>
        <time>2016-06-01T00:48:31Z</time>
      </trkpt>
      <trkpt lat="43.6211" lon="6.54326">
        <ele>537</ele>
        <time>2016-06-01T00:50:31Z</time>
      </trkpt>
      <trkpt lat="43.62121" lon="6.54304">
        <ele>539</ele>
        <time>2016-06-01T00:52:31Z</time>
      </trkpt>
      <trkpt lat="43.62126" lon="6.54276">
        <ele>537</ele>
        <time>2016-06-01T00:54:31Z</time>
      </trkpt>
      <trkpt lat="43.62134" lon="6.54255">
        <ele>538</ele>
        <time>2016-06-01T00:56:31Z</time>
      </trkpt>
      <trkpt lat="43.62139" lon="6.54245">
        <ele>539</ele>
        <time>2016-06-01T00:58:31Z</time>
      </trkpt>
      <trkpt lat="43.62147" lon="6.54227">
        <ele>542</ele>
        <time>2016-06-01T01:00:31Z</time>
      </trkpt>
      <trkpt lat="43.62154" lon="6.54201">
        <ele>544</ele>
        <time>2016-06-01T01:02:31Z</time>
      </trkpt>
      <trkpt lat="43.6216" lon="6.54173">
        <ele>545</ele>
        <time>2016-06-01T01:04:31Z</time>
      </trkpt>
      <trkpt lat="43.62169" lon="6.54154">
        <ele>548</ele>
        <time>2016-06-01T01:06:31Z</time>
      </trkpt>
      <trkpt lat="43.62171" lon="6.54134">
        <ele>548</ele>
        <time>2016-06-01T01:08:31Z</time>
      </trkpt>
      <trkpt lat="43.62175" lon="6.5411">
        <ele>548</ele>
        <time>2016-06-01T01:10:31Z</time>
      </trkpt>
      <trkpt lat="43.62181" lon="6.54075">
        <ele>549</ele>
        <time>2016-06-01T01:12:31Z</time>
      </trkpt>
      <trkpt lat="43.62183" lon="6.54054">
        <ele>551</ele>
        <time>2016-06-01T01:14:31Z</time>
      </trkpt>
      <trkpt lat="43.62186" lon="6.54025">
        <ele>553</ele>
        <time>2016-06-01T01:16:31Z</time>
      </trkpt>
      <trkpt lat="43.6219" lon="6.54002">
        <ele>554</ele>
        <time>2016-06-01T01:18:31Z</time>
      </trkpt>
      <trkpt lat="43.62194" lon="6.5398">
        <ele>560</ele>
        <time>2016-06-01T01:20:31Z</time>
      </trkpt>
      <trkpt lat="43.6219" lon="6.5396">
        <ele>563</ele>
        <time>2016-06-01T01:22:31Z</time>
      </trkpt>
      <trkpt lat="43.62176" lon="6.53953">
        <ele>560</ele>
        <time>2016-06-01T01:24:31Z</time>
      </trkpt>
      <trkpt lat="43.62162" lon="6.53953">
        <ele>557</ele>
        <time>2016-06-01T01:26:31Z</time>
      </trkpt>
      <trkpt lat="43.62149" lon="6.53953">
        <ele>555</ele>
        <time>2016-06-01T01:28:31Z</time>
      </trkpt>
      <trkpt lat="43.62134" lon="6.53957">
        <ele>552</ele>
        <time>2016-06-01T01:30:31Z</time>
      </trkpt>
      <trkpt lat="43.62121" lon="6.53957">
        <ele>550</ele>
        <time>2016-06-01T01:32:31Z</time>
      </trkpt>
      <trkpt lat="43.62105" lon="6.53945">
        <ele>551</ele>
        <time>2016-06-01T01:34:31Z</time>
      </trkpt>
      <trkpt lat="43.62095" lon="6.53939">
        <ele>551</ele>
        <time>2016-06-01T01:36:31Z</time>
      </trkpt>
      <trkpt lat="43.6209" lon="6.53924">
        <ele>554</ele>
        <time>2016-06-01T01:38:31Z</time>
      </trkpt>
      <trkpt lat="43.62084" lon="6.5391">
        <ele>556</ele>
        <time>2016-06-01T01:40:31Z</time>
      </trkpt>
      <trkpt lat="43.62086" lon="6.53892">
        <ele>559</ele>
        <time>2016-06-01T01:42:31Z</time>
      </trkpt>
      <trkpt lat="43.6209" lon="6.53876">
        <ele>563</ele>
        <time>2016-06-01T01:44:31Z</time>
      </trkpt>
      <trkpt lat="43.6209" lon="6.53857">
        <ele>566</ele>
        <time>2016-06-01T01:46:31Z</time>
      </trkpt>
      <trkpt lat="43.62086" lon="6.53841">
        <ele>568</ele>
        <time>2016-06-01T01:48:31Z</time>
      </trkpt>
      <trkpt lat="43.62074" lon="6.53835">
        <ele>564</ele>
        <time>2016-06-01T01:50:31Z</time>
      </trkpt>
      <trkpt lat="43.62063" lon="6.53827">
        <ele>562</ele>
        <time>2016-06-01T01:52:31Z</time>
      </trkpt>
      <trkpt lat="43.62055" lon="6.53808">
        <ele>562</ele>
        <time>2016-06-01T01:54:31Z</time>
      </trkpt>
      <trkpt lat="43.62056" lon="6.5379">
        <ele>566</ele>
        <time>2016-06-01T01:56:31Z</time>
      </trkpt>
      <trkpt lat="43.62058" lon="6.53772">
        <ele>570</ele>
        <time>2016-06-01T01:58:31Z</time>
      </trkpt>
      <trkpt lat="43.62056" lon="6.53751">
        <ele>573</ele>
        <time>2016-06-01T02:00:31Z</time>
      </trkpt>
      <trkpt lat="43.62056" lon="6.53717">
        <ele>576</ele>
        <time>2016-06-01T02:02:31Z</time>
      </trkpt>
      <trkpt lat="43.62058" lon="6.53698">
        <ele>579</ele>
        <time>2016-06-01T02:04:31Z</time>
      </trkpt>
      <trkpt lat="43.62055" lon="6.53666">
        <ele>581</ele>
        <time>2016-06-01T02:06:31Z</time>
      </trkpt>
      <trkpt lat="43.62052" lon="6.53636">
        <ele>583</ele>
        <time>2016-06-01T02:08:31Z</time>
      </trkpt>
      <trkpt lat="43.6205" lon="6.53599">
        <ele>587</ele>
        <time>2016-06-01T02:10:31Z</time>
      </trkpt>
      <trkpt lat="43.62048" lon="6.53567">
        <ele>589</ele>
        <time>2016-06-01T02:12:31Z</time>
      </trkpt>
      <trkpt lat="43.62046" lon="6.53526">
        <ele>594</ele>
        <time>2016-06-01T02:14:31Z</time>
      </trkpt>
      <trkpt lat="43.62045" lon="6.53489">
        <ele>597</ele>
        <time>2016-06-01T02:16:31Z</time>
      </trkpt>
      <trkpt lat="43.62043" lon="6.53463">
        <ele>599</ele>
        <time>2016-06-01T02:18:31Z</time>
      </trkpt>
      <trkpt lat="43.62041" lon="6.53431">
        <ele>601</ele>
        <time>2016-06-01T02:20:31Z</time>
      </trkpt>
      <trkpt lat="43.62041" lon="6.53407">
        <ele>603</ele>
        <time>2016-06-01T02:22:31Z</time>
      </trkpt>
      <trkpt lat="43.62038" lon="6.53374">
        <ele>605</ele>
        <time>2016-06-01T02:24:31Z</time>
      </trkpt>
      <trkpt lat="43.62038" lon="6.53341">
        <ele>608</ele>
        <time>2016-06-01T02:26:31Z</time>
      </trkpt>
      <trkpt lat="43.62039" lon="6.53316">
        <ele>610</ele>
        <time>2016-06-01T02:28:31Z</time>
      </trkpt>
      <trkpt lat="43.62038" lon="6.53284">
        <ele>612</ele>
        <time>2016-06-01T02:30:31Z</time>
      </trkpt>
      <trkpt lat="43.62038" lon="6.53262">
        <ele>613</ele>
        <time>2016-06-01T02:32:31Z</time>
      </trkpt>
      <trkpt lat="43.62038" lon="6.53245">
        <ele>614</ele>
        <time>2016-06-01T02:34:31Z</time>
      </trkpt>
      <trkpt lat="43.62042" lon="6.53228">
        <ele>615</ele>
        <time>2016-06-01T02:36:31Z</time>
      </trkpt>
      <trkpt lat="43.62042" lon="6.5321">
        <ele>616</ele>
        <time>2016-06-01T02:38:31Z</time>
      </trkpt>
      <trkpt lat="43.62048" lon="6.53191">
        <ele>617</ele>
        <time>2016-06-01T02:40:31Z</time>
      </trkpt>
      <trkpt lat="43.62051" lon="6.53172">
        <ele>618</ele>
        <time>2016-06-01T02:42:31Z</time>
      </trkpt>
      <trkpt lat="43.62053" lon="6.5315">
        <ele>619</ele>
        <time>2016-06-01T02:44:31Z</time>
      </trkpt>
      <trkpt lat="43.6206" lon="6.53131">
        <ele>620</ele>
        <time>2016-06-01T02:46:31Z</time>
      </trkpt>
      <trkpt lat="43.62064" lon="6.53107">
        <ele>621</ele>
        <time>2016-06-01T02:48:31Z</time>
      </trkpt>
      <trkpt lat="43.62068" lon="6.53087">
        <ele>622</ele>
        <time>2016-06-01T02:50:31Z</time>
      </trkpt>
      <trkpt lat="43.62074" lon="6.53067">
        <ele>622</ele>
        <time>2016-06-01T02:52:31Z</time>
      </trkpt>
      <trkpt lat="43.62078" lon="6.53046">
        <ele>623</ele>
        <time>2016-06-01T02:54:31Z</time>
      </trkpt>
      <trkpt lat="43.62086" lon="6.53025">
        <ele>623</ele>
        <time>2016-06-01T02:56:31Z</time>
      </trkpt>
      <trkpt lat="43.62095" lon="6.53007">
        <ele>625</ele>
        <time>2016-06-01T02:58:31Z</time>
      </trkpt>
      <trkpt lat="43.62106" lon="6.52993">
        <ele>627</ele>
        <time>2016-06-01T03:00:31Z</time>
      </trkpt>
      <trkpt lat="43.62117" lon="6.52976">
        <ele>629</ele>
        <time>2016-06-01T03:02:31Z</time>
      </trkpt>
      <trkpt lat="43.62121" lon="6.52955">
        <ele>630</ele>
        <time>2016-06-01T03:04:31Z</time>
      </trkpt>
      <trkpt lat="43.62125" lon="6.52933">
        <ele>631</ele>
        <time>2016-06-01T03:06:31Z</time>
      </trkpt>
      <trkpt lat="43.62132" lon="6.52913">
        <ele>631</ele>
        <time>2016-06-01T03:08:31Z</time>
      </trkpt>
      <trkpt lat="43.62137" lon="6.5289">
        <ele>632</ele>
        <time>2016-06-01T03:10:31Z</time>
      </trkpt>
      <trkpt lat="43.62143" lon="6.52867">
        <ele>632</ele>
        <time>2016-06-01T03:12:31Z</time>
      </trkpt>
      <trkpt lat="43.62152" lon="6.52842">
        <ele>632</ele>
        <time>2016-06-01T03:14:31Z</time>
      </trkpt>
      <trkpt lat="43.62164" lon="6.52821">
        <ele>632</ele>
        <time>2016-06-01T03:16:31Z</time>
      </trkpt>
      <trkpt lat="43.62175" lon="6.52774">
        <ele>631</ele>
        <time>2016-06-01T03:18:31Z</time>
      </trkpt>
      <trkpt lat="43.62185" lon="6.5273">
        <ele>631</ele>
        <time>2016-06-01T03:20:31Z</time>
      </trkpt>
      <trkpt lat="43.62189" lon="6.52697">
        <ele>630</ele>
        <time>2016-06-01T03:22:31Z</time>
      </trkpt>
      <trkpt lat="43.62195" lon="6.52661">
        <ele>630</ele>
        <time>2016-06-01T03:24:31Z</time>
      </trkpt>
      <trkpt lat="43.62195" lon="6.52633">
        <ele>630</ele>
        <time>2016-06-01T03:26:31Z</time>
      </trkpt>
      <trkpt lat="43.62206" lon="6.52605">
        <ele>630</ele>
        <time>2016-06-01T03:28:31Z</time>
      </trkpt>
      <trkpt lat="43.6222" lon="6.52573">
        <ele>630</ele>
        <time>2016-06-01T03:30:31Z</time>
      </trkpt>
      <trkpt lat="43.62195" lon="6.5256">
        <ele>631</ele>
        <time>2016-06-01T03:32:31Z</time>
      </trkpt>
      <trkpt lat="43.62178" lon="6.5255">
        <ele>633</ele>
        <time>2016-06-01T03:34:31Z</time>
      </trkpt>
      <trkpt lat="43.62166" lon="6.52544">
        <ele>634</ele>
        <time>2016-06-01T03:36:31Z</time>
      </trkpt>
      <trkpt lat="43.6215" lon="6.5254">
        <ele>636</ele>
        <time>2016-06-01T03:38:31Z</time>
      </trkpt>
      <trkpt lat="43.62143" lon="6.52527">
        <ele>637</ele>
        <time>2016-06-01T03:40:31Z</time>
      </trkpt>
      <trkpt lat="43.6213" lon="6.52514">
        <ele>640</ele>
        <time>2016-06-01T03:42:31Z</time>
      </trkpt>
      <trkpt lat="43.62121" lon="6.52497">
        <ele>642</ele>
        <time>2016-06-01T03:44:31Z</time>
      </trkpt>
      <trkpt lat="43.62105" lon="6.52465">
        <ele>645</ele>
        <time>2016-06-01T03:46:31Z</time>
      </trkpt>
      <trkpt lat="43.62091" lon="6.52458">
        <ele>646</ele>
        <time>2016-06-01T03:48:31Z</time>
      </trkpt>
      <trkpt lat="43.62073" lon="6.52449">
        <ele>647</ele>
        <time>2016-06-01T03:50:31Z</time>
      </trkpt>
      <trkpt lat="43.62053" lon="6.52457">
        <ele>647</ele>
        <time>2016-06-01T03:52:31Z</time>
      </trkpt>
      <trkpt lat="43.62028" lon="6.52458">
        <ele>646</ele>
        <time>2016-06-01T03:54:31Z</time>
      </trkpt>
      <trkpt lat="43.62005" lon="6.52458">
        <ele>646</ele>
        <time>2016-06-01T03:56:31Z</time>
      </trkpt>
      <trkpt lat="43.61984" lon="6.52458">
        <ele>644</ele>
        <time>2016-06-01T03:58:31Z</time>
      </trkpt>
      <trkpt lat="43.61962" lon="6.52452">
        <ele>641</ele>
        <time>2016-06-01T04:00:31Z</time>
      </trkpt>
      <trkpt lat="43.61939" lon="6.52444">
        <ele>639</ele>
        <time>2016-06-01T04:02:31Z</time>
      </trkpt>
      <trkpt lat="43.61923" lon="6.52428">
        <ele>637</ele>
        <time>2016-06-01T04:04:31Z</time>
      </trkpt>
      <trkpt lat="43.61897" lon="6.52417">
        <ele>634</ele>
        <time>2016-06-01T04:06:31Z</time>
      </trkpt>
      <trkpt lat="43.61879" lon="6.52386">
        <ele>633</ele>
        <time>2016-06-01T04:08:31Z</time>
      </trkpt>
      <trkpt lat="43.61855" lon="6.52352">
        <ele>631</ele>
        <time>2016-06-01T04:10:31Z</time>
      </trkpt>
      <trkpt lat="43.61817" lon="6.52325">
        <ele>628</ele>
        <time>2016-06-01T04:12:31Z</time>
      </trkpt>
      <trkpt lat="43.61784" lon="6.52329">
        <ele>624</ele>
        <time>2016-06-01T04:14:31Z</time>
      </trkpt>
      <trkpt lat="43.6175" lon="6.52294">
        <ele>619</ele>
        <time>2016-06-01T04:16:31Z</time>
      </trkpt>
      <trkpt lat="43.61718" lon="6.52252">
        <ele>622</ele>
        <time>2016-06-01T04:18:31Z</time>
      </trkpt>
      <trkpt lat="43.61677" lon="6.52252">
        <ele>624</ele>
        <time>2016-06-01T04:20:31Z</time>
      </trkpt>
      <trkpt lat="43.61635" lon="6.52258">
        <ele>631</ele>
        <time>2016-06-01T04:22:31Z</time>
      </trkpt>
      <trkpt lat="43.6158" lon="6.52251">
        <ele>643</ele>
        <time>2016-06-01T04:24:31Z</time>
      </trkpt>
      <trkpt lat="43.61545" lon="6.52241">
        <ele>648</ele>
        <time>2016-06-01T04:26:31Z</time>
      </trkpt>
      <trkpt lat="43.61507" lon="6.52236">
        <ele>652</ele>
        <time>2016-06-01T04:28:31Z</time>
      </trkpt>
      <trkpt lat="43.61473" lon="6.52234">
        <ele>656</ele>
        <time>2016-06-01T04:30:31Z</time>
      </trkpt>
      <trkpt lat="43.61445" lon="6.52238">
        <ele>659</ele>
        <time>2016-06-01T04:32:31Z</time>
      </trkpt>
      <trkpt lat="43.61386" lon="6.52232">
        <ele>668</ele>
        <time>2016-06-01T04:34:31Z</time>
      </trkpt>
      <trkpt lat="43.61355" lon="6.52217">
        <ele>674</ele>
        <time>2016-06-01T04:36:31Z</time>
      </trkpt>
      <trkpt lat="43.61319" lon="6.52191">
        <ele>679</ele>
        <time>2016-06-01T04:38:31Z</time>
      </trkpt>
      <trkpt lat="43.61282" lon="6.52165">
        <ele>684</ele>
        <time>2016-06-01T04:40:31Z</time>
      </trkpt>
      <trkpt lat="43.61256" lon="6.52157">
        <ele>687</ele>
        <time>2016-06-01T04:42:31Z</time>
      </trkpt>
      <trkpt lat="43.61226" lon="6.52146">
        <ele>691</ele>
        <time>2016-06-01T04:44:31Z</time>
      </trkpt>
      <trkpt lat="43.61187" lon="6.52146">
        <ele>695</ele>
        <time>2016-06-01T04:46:31Z</time>
      </trkpt>
      <trkpt lat="43.61161" lon="6.52193">
        <ele>699</ele>
        <time>2016-06-01T04:48:31Z</time>
      </trkpt>
      <trkpt lat="43.61136" lon="6.52232">
        <ele>704</ele>
        <time>2016-06-01T04:50:31Z</time>
      </trkpt>
      <trkpt lat="43.61128" lon="6.52277">
        <ele>704</ele>
        <time>2016-06-01T04:52:31Z</time>
      </trkpt>
      <trkpt lat="43.61128" lon="6.52335">
        <ele>703</ele>
        <time>2016-06-01T04:54:31Z</time>
      </trkpt>
      <trkpt lat="43.61128" lon="6.52363">
        <ele>703</ele>
        <time>2016-06-01T04:56:31Z</time>
      </trkpt>
      <trkpt lat="43.61103" lon="6.52421">
        <ele>707</ele>
        <time>2016-06-01T04:58:31Z</time>
      </trkpt>
      <trkpt lat="43.61089" lon="6.52489">
        <ele>707</ele>
        <time>2016-06-01T05:00:31Z</time>
      </trkpt>
      <trkpt lat="43.61071" lon="6.52554">
        <ele>710</ele>
        <time>2016-06-01T05:02:31Z</time>
      </trkpt>
      <trkpt lat="43.61054" lon="6.52605">
        <ele>713</ele>
        <time>2016-06-01T05:04:31Z</time>
      </trkpt>
      <trkpt lat="43.6104" lon="6.5265">
        <ele>715</ele>
        <time>2016-06-01T05:06:31Z</time>
      </trkpt>
      <trkpt lat="43.61013" lon="6.52708">
        <ele>720</ele>
        <time>2016-06-01T05:08:31Z</time>
      </trkpt>
      <trkpt lat="43.60998" lon="6.52771">
        <ele>720</ele>
        <time>2016-06-01T05:10:31Z</time>
      </trkpt>
      <trkpt lat="43.60945" lon="6.52805">
        <ele>728</ele>
        <time>2016-06-01T05:12:31Z</time>
      </trkpt>
      <trkpt lat="43.60928" lon="6.52865">
        <ele>729</ele>
        <time>2016-06-01T05:14:31Z</time>
      </trkpt>
      <trkpt lat="43.60925" lon="6.52936">
        <ele>728</ele>
        <time>2016-06-01T05:16:31Z</time>
      </trkpt>
      <trkpt lat="43.60905" lon="6.52977">
        <ele>730</ele>
        <time>2016-06-01T05:18:31Z</time>
      </trkpt>
      <trkpt lat="43.60889" lon="6.53032">
        <ele>732</ele>
        <time>2016-06-01T05:20:31Z</time>
      </trkpt>
      <trkpt lat="43.6088" lon="6.53075">
        <ele>733</ele>
        <time>2016-06-01T05:22:31Z</time>
      </trkpt>
      <trkpt lat="43.60858" lon="6.53112">
        <ele>734</ele>
        <time>2016-06-01T05:24:31Z</time>
      </trkpt>
      <trkpt lat="43.60894" lon="6.53157">
        <ele>731</ele>
        <time>2016-06-01T05:26:31Z</time>
      </trkpt>
      <trkpt lat="43.60898" lon="6.53223">
        <ele>731</ele>
        <time>2016-06-01T05:28:31Z</time>
      </trkpt>
      <trkpt lat="43.609" lon="6.53271">
        <ele>730</ele>
        <time>2016-06-01T05:30:31Z</time>
      </trkpt>
      <trkpt lat="43.60887" lon="6.53333">
        <ele>729</ele>
        <time>2016-06-01T05:32:31Z</time>
      </trkpt>
      <trkpt lat="43.60878" lon="6.53371">
        <ele>727</ele>
        <time>2016-06-01T05:34:31Z</time>
      </trkpt>
      <trkpt lat="43.60877" lon="6.53436">
        <ele>724</ele>
        <time>2016-06-01T05:36:31Z</time>
      </trkpt>
      <trkpt lat="43.60863" lon="6.53487">
        <ele>721</ele>
        <time>2016-06-01T05:38:31Z</time>
      </trkpt>
      <trkpt lat="43.60849" lon="6.53528">
        <ele>719</ele>
        <time>2016-06-01T05:40:31Z</time>
      </trkpt>
      <trkpt lat="43.6083" lon="6.53586">
        <ele>717</ele>
        <time>2016-06-01T05:42:31Z</time>
      </trkpt>
      <trkpt lat="43.60842" lon="6.53644">
        <ele>713</ele>
        <time>2016-06-01T05:44:31Z</time>
      </trkpt>
      <trkpt lat="43.60863" lon="6.53693">
        <ele>708</ele>
        <time>2016-06-01T05:46:31Z</time>
      </trkpt>
      <trkpt lat="43.60932" lon="6.53713">
        <ele>702</ele>
        <time>2016-06-01T05:48:31Z</time>
      </trkpt>
      <trkpt lat="43.60953" lon="6.53734">
        <ele>697</ele>
        <time>2016-06-01T05:50:31Z</time>
      </trkpt>
      <trkpt lat="43.6092" lon="6.53768">
        <ele>698</ele>
        <time>2016-06-01T05:52:31Z</time>
      </trkpt>
      <trkpt lat="43.60886" lon="6.53801">
        <ele>696</ele>
        <time>2016-06-01T05:54:31Z</time>
      </trkpt>
      <trkpt lat="43.6087" lon="6.53843">
        <ele>693</ele>
        <time>2016-06-01T05:56:31Z</time>
      </trkpt>
      <trkpt lat="43.60867" lon="6.53878">
        <ele>689</ele>
        <time>2016-06-01T05:58:31Z</time>
      </trkpt>
      <trkpt lat="43.60835" lon="6.53867">
        <ele>691</ele>
        <time>2016-06-01T06:00:31Z</time>
      </trkpt>
      <trkpt lat="43.60799" lon="6.53861">
        <ele>690</ele>
        <time>2016-06-01T06:02:31Z</time>
      </trkpt>
      <trkpt lat="43.6079" lon="6.53897">
        <ele>687</ele>
        <time>2016-06-01T06:04:31Z</time>
      </trkpt>
      <trkpt lat="43.6079" lon="6.53953">
        <ele>685</ele>
        <time>2016-06-01T06:06:31Z</time>
      </trkpt>
      <trkpt lat="43.60819" lon="6.53998">
        <ele>684</ele>
        <time>2016-06-01T06:08:31Z</time>
      </trkpt>
      <trkpt lat="43.60852" lon="6.54017">
        <ele>682</ele>
        <time>2016-06-01T06:10:31Z</time>
      </trkpt>
      <trkpt lat="43.60878" lon="6.5406">
        <ele>678</ele>
        <time>2016-06-01T06:12:31Z</time>
      </trkpt>
      <trkpt lat="43.60897" lon="6.5411">
        <ele>677</ele>
        <time>2016-06-01T06:14:31Z</time>
      </trkpt>
      <trkpt lat="43.60915" lon="6.54163">
        <ele>678</ele>
        <time>2016-06-01T06:16:31Z</time>
      </trkpt>
      <trkpt lat="43.60928" lon="6.54232">
        <ele>678</ele>
        <time>2016-06-01T06:18:31Z</time>
      </trkpt>
      <trkpt lat="43.60926" lon="6.54298">
        <ele>675</ele>
        <time>2016-06-01T06:20:31Z</time>
      </trkpt>
      <trkpt lat="43.60909" lon="6.54352">
        <ele>675</ele>
        <time>2016-06-01T06:22:31Z</time>
      </trkpt>
      <trkpt lat="43.60889" lon="6.54399">
        <ele>675</ele>
        <time>2016-06-01T06:24:31Z</time>
      </trkpt>
      <trkpt lat="43.60872" lon="6.54442">
        <ele>674</ele>
        <time>2016-06-01T06:26:31Z</time>
      </trkpt>
      <trkpt lat="43.60865" lon="6.54546">
        <ele>668</ele>
        <time>2016-06-01T06:28:31Z</time>
      </trkpt>
      <trkpt lat="43.60891" lon="6.5453">
        <ele>665</ele>
        <time>2016-06-01T06:30:31Z</time>
      </trkpt>
      <trkpt lat="43.60912" lon="6.54548">
        <ele>659</ele>
        <time>2016-06-01T06:32:31Z</time>
      </trkpt>
      <trkpt lat="43.60957" lon="6.54553">
        <ele>643</ele>
        <time>2016-06-01T06:34:31Z</time>
      </trkpt>
      <trkpt lat="43.60948" lon="6.54618">
        <ele>638</ele>
        <time>2016-06-01T06:36:31Z</time>
      </trkpt>
      <trkpt lat="43.6095" lon="6.54647">
        <ele>633</ele>
        <time>2016-06-01T06:38:31Z</time>
      </trkpt>
      <trkpt lat="43.6095" lon="6.54673">
        <ele>629</ele>
        <time>2016-06-01T06:40:31Z</time>
      </trkpt>
      <trkpt lat="43.60954" lon="6.54716">
        <ele>620</ele>
        <time>2016-06-01T06:42:31Z</time>
      </trkpt>
      <trkpt lat="43.60978" lon="6.547">
        <ele>614</ele>
        <time>2016-06-01T06:44:31Z</time>
      </trkpt>
      <trkpt lat="43.61011" lon="6.54672">
        <ele>607</ele>
        <time>2016-06-01T06:46:31Z</time>
      </trkpt>
      <trkpt lat="43.61061" lon="6.5463">
        <ele>592</ele>
        <time>2016-06-01T06:48:31Z</time>
      </trkpt>
      <trkpt lat="43.61098" lon="6.54543">
        <ele>582</ele>
        <time>2016-06-01T06:50:31Z</time>
      </trkpt>
      <trkpt lat="43.61116" lon="6.54577">
        <ele>567</ele>
        <time>2016-06-01T06:52:31Z</time>
      </trkpt>
      <trkpt lat="43.61152" lon="6.54548">
        <ele>551</ele>
        <time>2016-06-01T06:54:31Z</time>
      </trkpt>
      <trkpt lat="43.61184" lon="6.54522">
        <ele>540</ele>
        <time>2016-06-01T06:56:31Z</time>
      </trkpt>
      <trkpt lat="43.61204" lon="6.54489">
        <ele>537</ele>
        <time>2016-06-01T06:58:31Z</time>
      </trkpt>
      <trkpt lat="43.61214" lon="6.54459">
        <ele>537</ele>
        <time>2016-06-01T07:00:31Z</time>
      </trkpt>
      <trkpt lat="43.61247" lon="6.54423">
        <ele>527</ele>
        <time>2016-06-01T07:02:31Z</time>
      </trkpt>
      <trkpt lat="43.61257" lon="6.5437">
        <ele>524</ele>
        <time>2016-06-01T07:04:31Z</time>
      </trkpt>
      <trkpt lat="43.6126" lon="6.54275">
        <ele>522</ele>
        <time>2016-06-01T07:06:31Z</time>
      </trkpt>
      <trkpt lat="43.61253" lon="6.54206">
        <ele>530</ele>
        <time>2016-06-01T07:08:31Z</time>
      </trkpt>
      <trkpt lat="43.6128" lon="6.54135">
        <ele>528</ele>
        <time>2016-06-01T07:10:31Z</time>
      </trkpt>
      <trkpt lat="43.61299" lon="6.54099">
        <ele>523</ele>
        <time>2016-06-01T07:12:31Z</time>
      </trkpt>
      <trkpt lat="43.61321" lon="6.54069">
        <ele>515</ele>
        <time>2016-06-01T07:14:31Z</time>
      </trkpt>
      <trkpt lat="43.61343" lon="6.54037">
        <ele>506</ele>
        <time>2016-06-01T07:16:31Z</time>
      </trkpt>
      <trkpt lat="43.61351" lon="6.54086">
        <ele>499</ele>
        <time>2016-06-01T07:18:31Z</time>
      </trkpt>
      <trkpt lat="43.61367" lon="6.54039">
        <ele>496</ele>
        <time>2016-06-01T07:20:31Z</time>
      </trkpt>
      <trkpt lat="43.61391" lon="6.54082">
        <ele>483</ele>
        <time>2016-06-01T07:22:31Z</time>
      </trkpt>
      <trkpt lat="43.61402" lon="6.54057">
        <ele>480</ele>
        <time>2016-06-01T07:24:31Z</time>
      </trkpt>
      <trkpt lat="43.61397" lon="6.53995">
        <ele>485</ele>
        <time>2016-06-01T07:26:31Z</time>
      </trkpt>
      <trkpt lat="43.61381" lon="6.53959">
        <ele>497</ele>
        <time>2016-06-01T07:28:31Z</time>
      </trkpt>
      <trkpt lat="43.61375" lon="6.53921">
        <ele>504</ele>
        <time>2016-06-01T07:30:31Z</time>
      </trkpt>
      <trkpt lat="43.61406" lon="6.53937">
        <ele>488</ele>
        <time>2016-06-01T07:32:31Z</time>
      </trkpt>
      <trkpt lat="43.61423" lon="6.53965">
        <ele>480</ele>
        <time>2016-06-01T07:34:31Z</time>
      </trkpt>
      <trkpt lat="43.61469" lon="6.53987">
        <ele>477</ele>
        <time>2016-06-01T07:36:31Z</time>
      </trkpt>
      <trkpt lat="43.61512" lon="6.54034">
        <ele>470</ele>
        <time>2016-06-01T07:38:31Z</time>
      </trkpt>
      <trkpt lat="43.61546" lon="6.54075">
        <ele>468</ele>
        <time>2016-06-01T07:40:31Z</time>
      </trkpt>
      <trkpt lat="43.6159" lon="6.54112">
        <ele>466</ele>
        <time>2016-06-01T07:42:31Z</time>
      </trkpt>
      <trkpt lat="43.61631" lon="6.54142">
        <ele>466</ele>
        <time>2016-06-01T07:44:31Z</time>
      </trkpt>
      <trkpt lat="43.61678" lon="6.54171">
        <ele>466</ele>
        <time>2016-06-01T07:46:31Z</time>
      </trkpt>
      <trkpt lat="43.61717" lon="6.5421">
        <ele>460</ele>
        <time>2016-06-01T07:48:31Z</time>
      </trkpt>
      <trkpt lat="43.61796" lon="6.5417">
        <ele>469</ele>
        <time>2016-06-01T07:50:31Z</time>
      </trkpt>
      <trkpt lat="43.61761" lon="6.54213">
        <ele>462</ele>
        <time>2016-06-01T07:52:31Z</time>
      </trkpt>
      <trkpt lat="43.61715" lon="6.54272">
        <ele>448</ele>
        <time>2016-06-01T07:54:31Z</time>
      </trkpt>
      <trkpt lat="43.6168" lon="6.54245">
        <ele>449</ele>
        <time>2016-06-01T07:56:31Z</time>
      </trkpt>
      <trkpt lat="43.6163" lon="6.54219">
        <ele>448</ele>
        <time>2016-06-01T07:58:31Z</time>
      </trkpt>
      <trkpt lat="43.61596" lon="6.54202">
        <ele>446</ele>
        <time>2016-06-01T08:00:31Z</time>
      </trkpt>
      <trkpt lat="43.6163" lon="6.54288">
        <ele>436</ele>
        <time>2016-06-01T08:02:31Z</time>
      </trkpt>
      <trkpt lat="43.61661" lon="6.54352">
        <ele>430</ele>
        <time>2016-06-01T08:04:31Z</time>
      </trkpt>
      <trkpt lat="43.61681" lon="6.54446">
        <ele>414</ele>
        <time>2016-06-01T08:06:31Z</time>
      </trkpt>
      <trkpt lat="43.61739" lon="6.54399">
        <ele>422</ele>
        <time>2016-06-01T08:08:31Z</time>
      </trkpt>
      <trkpt lat="43.61799" lon="6.54385">
        <ele>428</ele>
        <time>2016-06-01T08:10:31Z</time>
      </trkpt>
      <trkpt lat="43.6179" lon="6.54453">
        <ele>427</ele>
        <time>2016-06-01T08:12:31Z</time>
      </trkpt>
      <trkpt lat="43.61775" lon="6.54525">
        <ele>425</ele>
        <time>2016-06-01T08:14:31Z</time>
      </trkpt>
      <trkpt lat="43.61779" lon="6.54618">
        <ele>433</ele>
        <time>2016-06-01T08:16:31Z</time>
      </trkpt>
      <trkpt lat="43.61798" lon="6.54647">
        <ele>442</ele>
        <time>2016-06-01T08:18:31Z</time>
      </trkpt>
      <trkpt lat="43.618" lon="6.54751">
        <ele>446</ele>
        <time>2016-06-01T08:20:31Z</time>
      </trkpt>
      <trkpt lat="43.6184" lon="6.54828">
        <ele>453</ele>
        <time>2016-06-01T08:22:31Z</time>
      </trkpt>
      <trkpt lat="43.61869" lon="6.54882">
        <ele>455</ele>
        <time>2016-06-01T08:24:31Z</time>
      </trkpt>
      <trkpt lat="43.61896" lon="6.54925">
        <ele>458</ele>
        <time>2016-06-01T08:26:31Z</time>
      </trkpt>
      <trkpt lat="43.61921" lon="6.54957">
        <ele>465</ele>
        <time>2016-06-01T08:28:31Z</time>
      </trkpt>
      <trkpt lat="43.61959" lon="6.55002">
        <ele>471</ele>
        <time>2016-06-01T08:30:31Z</time>
      </trkpt>
      <trkpt lat="43.61944" lon="6.55045">
        <ele>471</ele>
        <time>2016-06-01T08:32:31Z</time>
      </trkpt>
      <trkpt lat="43.61953" lon="6.5507">
        <ele>474</ele>
        <time>2016-06-01T08:34:31Z</time>
      </trkpt>
      <trkpt lat="43.61964" lon="6.55096">
        <ele>476</ele>
        <time>2016-06-01T08:36:31Z</time>
      </trkpt>
      <trkpt lat="43.6194" lon="6.55107">
        <ele>474</ele>
        <time>2016-06-01T08:38:31Z</time>
      </trkpt>
    </trkseg>
  </trk>
</gpx>